sensor_id;sensor_type;location;lat;lon;timestamp;pressure;altitude;pressure_sealevel;temperature;humidity
71601;BME280;59446;52.192;4.628;2023-03-03T00:01:04;102634.44;;;17.25;47.49
71601;BME280;59446;52.192;4.628;2023-03-03T00:03:30;102636.22;;;17.25;47.61
71601;BME280;59446;52.192;4.628;2023-03-03T00:05:55;102632.72;;;17.24;47.19
71601;BME280;59446;52.192;4.628;2023-03-03T00:08:21;102635.41;;;17.21;47.92
71601;BME280;59446;52.192;4.628;2023-03-03T00:10:47;102631.88;;;17.24;47.85
71601;BME280;59446;52.192;4.628;2023-03-03T00:13:18;102636.28;;;17.22;47.63
71601;BME280;59446;52.192;4.628;2023-03-03T00:15:45;102637.19;;;17.21;47.59
71601;BME280;59446;52.192;4.628;2023-03-03T00:20:48;102643.31;;;17.21;47.76
71601;BME280;59446;52.192;4.628;2023-03-03T00:23:36;102643.41;;;17.18;47.52
71601;BME280;59446;52.192;4.628;2023-03-03T00:26:15;102635.53;;;17.17;47.81
71601;BME280;59446;52.192;4.628;2023-03-03T00:28:45;102640.81;;;17.17;47.58
71601;BME280;59446;52.192;4.628;2023-03-03T00:31:17;102641.66;;;17.17;47.48
71601;BME280;59446;52.192;4.628;2023-03-03T00:33:49;102645.25;;;17.15;47.64
71601;BME280;59446;52.192;4.628;2023-03-03T00:36:54;102645.31;;;17.13;47.56
71601;BME280;59446;52.192;4.628;2023-03-03T00:39:34;102641.81;;;17.13;48.06
71601;BME280;59446;52.192;4.628;2023-03-03T00:42:00;102643.63;;;17.11;48.22
71601;BME280;59446;52.192;4.628;2023-03-03T00:44:41;102648.91;;;17.09;47.48
71601;BME280;59446;52.192;4.628;2023-03-03T00:50:43;102641.06;;;17.08;47.69
71601;BME280;59446;52.192;4.628;2023-03-03T00:55:33;102648.22;;;17.03;47.76
71601;BME280;59446;52.192;4.628;2023-03-03T00:57:59;102641.19;;;17.03;47.82
71601;BME280;59446;52.192;4.628;2023-03-03T01:00:24;102646.50;;;17.02;48.21
71601;BME280;59446;52.192;4.628;2023-03-03T01:02:50;102656.16;;;17.01;48.20
71601;BME280;59446;52.192;4.628;2023-03-03T01:05:17;102650.06;;;16.99;48.26
71601;BME280;59446;52.192;4.628;2023-03-03T01:07:42;102651.81;;;16.98;47.86
71601;BME280;59446;52.192;4.628;2023-03-03T01:10:09;102653.66;;;16.95;48.49
71601;BME280;59446;52.192;4.628;2023-03-03T01:12:34;102653.66;;;16.95;48.23
71601;BME280;59446;52.192;4.628;2023-03-03T01:15:01;102655.47;;;16.93;47.99
71601;BME280;59446;52.192;4.628;2023-03-03T01:17:27;102654.56;;;16.94;48.31
71601;BME280;59446;52.192;4.628;2023-03-03T01:19:53;102655.53;;;16.91;47.91
71601;BME280;59446;52.192;4.628;2023-03-03T01:22:18;102664.19;;;16.95;48.35
71601;BME280;59446;52.192;4.628;2023-03-03T01:24:44;102658.19;;;16.90;47.86
71601;BME280;59446;52.192;4.628;2023-03-03T01:27:09;102657.47;;;16.85;48.14
71601;BME280;59446;52.192;4.628;2023-03-03T01:29:35;102656.56;;;16.86;48.03
71601;BME280;59446;52.192;4.628;2023-03-03T01:32:00;102649.56;;;16.85;48.04
71601;BME280;59446;52.192;4.628;2023-03-03T01:34:26;102652.19;;;16.85;47.90
71601;BME280;59446;52.192;4.628;2023-03-03T01:36:51;102659.22;;;16.84;48.35
71601;BME280;59446;52.192;4.628;2023-03-03T01:39:16;102655.81;;;16.81;48.45
71601;BME280;59446;52.192;4.628;2023-03-03T01:41:42;102655.84;;;16.79;48.26
71601;BME280;59446;52.192;4.628;2023-03-03T01:44:13;102655.91;;;16.76;48.72
71601;BME280;59446;52.192;4.628;2023-03-03T01:49:55;102656.00;;;16.73;48.71
71601;BME280;59446;52.192;4.628;2023-03-03T01:54:51;102648.22;;;16.69;48.79
71601;BME280;59446;52.192;4.628;2023-03-03T01:57:35;102646.41;;;16.71;48.72
71601;BME280;59446;52.192;4.628;2023-03-03T02:00:02;102649.13;;;16.67;48.17
71601;BME280;59446;52.192;4.628;2023-03-03T02:02:30;102651.78;;;16.66;48.76
71601;BME280;59446;52.192;4.628;2023-03-03T02:04:56;102648.28;;;16.65;48.79
71601;BME280;59446;52.192;4.628;2023-03-03T02:07:22;102644.81;;;16.65;48.46
71601;BME280;59446;52.192;4.628;2023-03-03T02:09:58;102643.13;;;16.62;48.71
71601;BME280;59446;52.192;4.628;2023-03-03T02:12:45;102650.09;;;16.63;48.45
71601;BME280;59446;52.192;4.628;2023-03-03T02:17:41;102654.53;;;16.60;48.36
71601;BME280;59446;52.192;4.628;2023-03-03T02:20:24;102649.38;;;16.57;48.74
71601;BME280;59446;52.192;4.628;2023-03-03T02:22:59;102644.97;;;16.57;49.12
71601;BME280;59446;52.192;4.628;2023-03-03T02:25:51;102643.25;;;16.56;48.95
71601;BME280;59446;52.192;4.628;2023-03-03T02:28:19;102642.44;;;16.53;48.38
71601;BME280;59446;52.192;4.628;2023-03-03T02:30:45;102645.00;;;16.56;49.20
71601;BME280;59446;52.192;4.628;2023-03-03T02:33:10;102648.63;;;16.50;48.53
71601;BME280;59446;52.192;4.628;2023-03-03T02:35:37;102651.28;;;16.49;48.82
71601;BME280;59446;52.192;4.628;2023-03-03T02:38:29;102640.81;;;16.47;48.61
71601;BME280;59446;52.192;4.628;2023-03-03T02:41:14;102639.09;;;16.46;48.73
71601;BME280;59446;52.192;4.628;2023-03-03T02:43:58;102648.75;;;16.46;49.08
71601;BME280;59446;52.192;4.628;2023-03-03T02:46:23;102645.25;;;16.45;49.23
71601;BME280;59446;52.192;4.628;2023-03-03T02:48:49;102640.81;;;16.47;48.72
71601;BME280;59446;52.192;4.628;2023-03-03T02:51:14;102638.25;;;16.44;48.64
71601;BME280;59446;52.192;4.628;2023-03-03T02:53:40;102631.34;;;16.40;48.75
71601;BME280;59446;52.192;4.628;2023-03-03T02:56:06;102631.28;;;16.43;49.09
71601;BME280;59446;52.192;4.628;2023-03-03T02:58:34;102634.81;;;16.42;48.84
71601;BME280;59446;52.192;4.628;2023-03-03T03:00:59;102638.38;;;16.40;48.91
71601;BME280;59446;52.192;4.628;2023-03-03T03:03:24;102641.94;;;16.37;49.12
71601;BME280;59446;52.192;4.628;2023-03-03T03:05:50;102640.22;;;16.36;48.64
71601;BME280;59446;52.192;4.628;2023-03-03T03:08:15;102639.41;;;16.34;48.79
71601;BME280;59446;52.192;4.628;2023-03-03T03:10:40;102646.38;;;16.35;49.32
71601;BME280;59446;52.192;4.628;2023-03-03T03:13:06;102641.13;;;16.35;48.96
71601;BME280;59446;52.192;4.628;2023-03-03T03:15:31;102645.56;;;16.31;48.65
71601;BME280;59446;52.192;4.628;2023-03-03T03:17:57;102648.16;;;16.33;49.00
71601;BME280;59446;52.192;4.628;2023-03-03T03:20:22;102642.16;;;16.28;48.96
71601;BME280;59446;52.192;4.628;2023-03-03T03:22:47;102642.97;;;16.30;49.26
71601;BME280;59446;52.192;4.628;2023-03-03T03:25:13;102651.81;;;16.27;49.04
71601;BME280;59446;52.192;4.628;2023-03-03T03:27:38;102659.72;;;16.26;48.99
71601;BME280;59446;52.192;4.628;2023-03-03T03:30:04;102656.28;;;16.24;49.50
71601;BME280;59446;52.192;4.628;2023-03-03T03:32:29;102650.13;;;16.25;49.16
71601;BME280;59446;52.192;4.628;2023-03-03T03:34:55;102650.94;;;16.27;48.67
71601;BME280;59446;52.192;4.628;2023-03-03T03:37:20;102653.78;;;16.18;49.53
71601;BME280;59446;52.192;4.628;2023-03-03T03:39:45;102655.44;;;16.22;48.90
71601;BME280;59446;52.192;4.628;2023-03-03T03:42:11;102659.84;;;16.21;48.69
71601;BME280;59446;52.192;4.628;2023-03-03T03:44:36;102662.53;;;16.18;48.78
71601;BME280;59446;52.192;4.628;2023-03-03T03:47:02;102658.22;;;16.16;48.91
71601;BME280;59446;52.192;4.628;2023-03-03T03:49:27;102660.81;;;16.17;49.56
71601;BME280;59446;52.192;4.628;2023-03-03T03:51:52;102656.38;;;16.19;49.33
71601;BME280;59446;52.192;4.628;2023-03-03T03:54:18;102672.19;;;16.18;49.36
71601;BME280;59446;52.192;4.628;2023-03-03T03:56:43;102664.41;;;16.13;49.15
71601;BME280;59446;52.192;4.628;2023-03-03T03:59:09;102672.25;;;16.15;48.88
71601;BME280;59446;52.192;4.628;2023-03-03T04:01:34;102672.34;;;16.12;49.47
71601;BME280;59446;52.192;4.628;2023-03-03T04:03:59;102671.47;;;16.11;49.02
71601;BME280;59446;52.192;4.628;2023-03-03T04:06:25;102669.72;;;16.10;49.40
71601;BME280;59446;52.192;4.628;2023-03-03T04:08:50;102670.66;;;16.08;49.73
71601;BME280;59446;52.192;4.628;2023-03-03T04:11:16;102685.47;;;16.10;49.49
71601;BME280;59446;52.192;4.628;2023-03-03T04:13:42;102681.13;;;16.09;49.07
71601;BME280;59446;52.192;4.628;2023-03-03T04:16:07;102677.66;;;16.07;49.17
71601;BME280;59446;52.192;4.628;2023-03-03T04:18:33;102675.09;;;16.04;49.11
71601;BME280;59446;52.192;4.628;2023-03-03T04:20:58;102674.16;;;16.06;49.54
71601;BME280;59446;52.192;4.628;2023-03-03T04:23:23;102673.38;;;16.03;49.36
71601;BME280;59446;52.192;4.628;2023-03-03T04:25:49;102668.13;;;16.03;48.87
71601;BME280;59446;52.192;4.628;2023-03-03T04:28:15;102672.50;;;16.02;49.33
71601;BME280;59446;52.192;4.628;2023-03-03T04:30:41;102670.84;;;15.98;49.31
71601;BME280;59446;52.192;4.628;2023-03-03T04:33:06;102673.44;;;16.00;49.14
71601;BME280;59446;52.192;4.628;2023-03-03T04:35:33;102676.13;;;15.98;49.44
71601;BME280;59446;52.192;4.628;2023-03-03T04:37:58;102681.31;;;16.01;49.34
71601;BME280;59446;52.192;4.628;2023-03-03T04:40:24;102681.38;;;15.98;49.74
71601;BME280;59446;52.192;4.628;2023-03-03T04:42:49;102671.72;;;15.99;49.46
71601;BME280;59446;52.192;4.628;2023-03-03T04:45:15;102677.00;;;15.97;48.84
71601;BME280;59446;52.192;4.628;2023-03-03T04:47:41;102678.81;;;15.95;49.39
71601;BME280;59446;52.192;4.628;2023-03-03T04:50:07;102682.34;;;15.94;49.12
71601;BME280;59446;52.192;4.628;2023-03-03T04:52:33;102678.81;;;15.95;49.47
71601;BME280;59446;52.192;4.628;2023-03-03T04:54:59;102683.19;;;15.95;49.12
71601;BME280;59446;52.192;4.628;2023-03-03T04:57:24;102677.91;;;15.96;49.65
71601;BME280;59446;52.192;4.628;2023-03-03T04:59:49;102680.59;;;15.93;49.48
71601;BME280;59446;52.192;4.628;2023-03-03T05:02:15;102681.44;;;15.95;49.66
71601;BME280;59446;52.192;4.628;2023-03-03T05:04:41;102678.81;;;15.95;48.88
71601;BME280;59446;52.192;4.628;2023-03-03T05:07:06;102685.91;;;15.92;49.33
71601;BME280;59446;52.192;4.628;2023-03-03T05:09:32;102678.91;;;15.91;49.09
71601;BME280;59446;52.192;4.628;2023-03-03T05:11:58;102676.31;;;15.89;49.55
71601;BME280;59446;52.192;4.628;2023-03-03T05:14:24;102684.22;;;15.88;49.51
71601;BME280;59446;52.192;4.628;2023-03-03T05:16:49;102676.31;;;15.88;49.74
71601;BME280;59446;52.192;4.628;2023-03-03T05:19:14;102682.47;;;15.87;49.52
71601;BME280;59446;52.192;4.628;2023-03-03T05:21:40;102688.59;;;15.87;49.13
71601;BME280;59446;52.192;4.628;2023-03-03T05:24:11;102676.31;;;15.89;48.95
71601;BME280;59446;52.192;4.628;2023-03-03T05:26:37;102687.72;;;15.87;49.46
71601;BME280;59446;52.192;4.628;2023-03-03T05:29:03;102681.69;;;15.83;49.17
71601;BME280;59446;52.192;4.628;2023-03-03T05:31:28;102687.75;;;15.85;49.19
71601;BME280;59446;52.192;4.628;2023-03-03T05:33:54;102685.22;;;15.82;49.68
71601;BME280;59446;52.192;4.628;2023-03-03T05:36:19;102686.03;;;15.84;49.76
71601;BME280;59446;52.192;4.628;2023-03-03T05:38:45;102681.69;;;15.83;48.85
71601;BME280;59446;52.192;4.628;2023-03-03T05:41:10;102679.94;;;15.82;49.63
71601;BME280;59446;52.192;4.628;2023-03-03T05:43:35;102679.06;;;15.83;49.45
71601;BME280;59446;52.192;4.628;2023-03-03T05:46:02;102683.50;;;15.80;49.18
71601;BME280;59446;52.192;4.628;2023-03-03T05:48:27;102680.91;;;15.78;49.65
71601;BME280;59446;52.192;4.628;2023-03-03T05:50:53;102686.13;;;15.80;49.53
71601;BME280;59446;52.192;4.628;2023-03-03T05:53:18;102680.06;;;15.78;49.09
71601;BME280;59446;52.192;4.628;2023-03-03T05:55:44;102680.09;;;15.76;49.54
71601;BME280;59446;52.192;4.628;2023-03-03T05:58:09;102686.25;;;15.75;49.46
71601;BME280;59446;52.192;4.628;2023-03-03T06:00:36;102685.38;;;15.74;49.08
71601;BME280;59446;52.192;4.628;2023-03-03T06:03:01;102684.47;;;15.75;49.61
71601;BME280;59446;52.192;4.628;2023-03-03T06:05:27;102685.41;;;15.73;49.67
71601;BME280;59446;52.192;4.628;2023-03-03T06:07:52;102684.56;;;15.71;49.74
71601;BME280;59446;52.192;4.628;2023-03-03T06:10:17;102683.72;;;15.70;49.15
71601;BME280;59446;52.192;4.628;2023-03-03T06:12:43;102701.16;;;15.73;49.48
71601;BME280;59446;52.192;4.628;2023-03-03T06:15:09;102698.53;;;15.73;49.25
71601;BME280;59446;52.192;4.628;2023-03-03T06:17:34;102703.00;;;15.69;49.62
71601;BME280;59446;52.192;4.628;2023-03-03T06:20:00;102704.75;;;15.69;49.44
71601;BME280;59446;52.192;4.628;2023-03-03T06:22:25;102702.13;;;15.69;49.47
71601;BME280;59446;52.192;4.628;2023-03-03T06:24:51;102705.66;;;15.68;49.97
71601;BME280;59446;52.192;4.628;2023-03-03T06:27:17;102710.03;;;15.67;49.39
71601;BME280;59446;52.192;4.628;2023-03-03T06:29:43;102708.28;;;15.66;49.58
71601;BME280;59446;52.192;4.628;2023-03-03T06:32:09;102713.53;;;15.68;49.10
71601;BME280;59446;52.192;4.628;2023-03-03T06:34:34;102719.66;;;15.67;49.46
71601;BME280;59446;52.192;4.628;2023-03-03T06:36:59;102717.91;;;15.64;49.49
71601;BME280;59446;52.192;4.628;2023-03-03T06:39:25;102718.81;;;15.63;49.63
71601;BME280;59446;52.192;4.628;2023-03-03T06:41:50;102718.78;;;15.65;49.84
71601;BME280;59446;52.192;4.628;2023-03-03T06:44:16;102719.75;;;15.61;49.36
71601;BME280;59446;52.192;4.628;2023-03-03T06:46:41;102715.34;;;15.61;49.86
71601;BME280;59446;52.192;4.628;2023-03-03T06:49:06;102723.22;;;15.61;49.57
71601;BME280;59446;52.192;4.628;2023-03-03T06:51:34;102720.59;;;15.61;49.82
71601;BME280;59446;52.192;4.628;2023-03-03T06:54:10;102731.16;;;15.60;49.83
71601;BME280;59446;52.192;4.628;2023-03-03T06:56:36;102724.13;;;15.60;50.03
71601;BME280;59446;52.192;4.628;2023-03-03T06:59:09;102728.56;;;15.58;49.75
71601;BME280;59446;52.192;4.628;2023-03-03T07:01:36;102732.94;;;15.58;49.51
71601;BME280;59446;52.192;4.628;2023-03-03T07:04:31;102732.94;;;15.58;49.40
71601;BME280;59446;52.192;4.628;2023-03-03T07:06:59;102732.06;;;15.57;49.67
71601;BME280;59446;52.192;4.628;2023-03-03T07:09:30;102738.19;;;15.58;49.43
71601;BME280;59446;52.192;4.628;2023-03-03T07:12:00;102742.56;;;15.57;49.70
71601;BME280;59446;52.192;4.628;2023-03-03T07:14:26;102733.88;;;15.55;49.58
71601;BME280;59446;52.192;4.628;2023-03-03T07:16:59;102737.31;;;15.57;49.62
71601;BME280;59446;52.192;4.628;2023-03-03T07:19:35;102737.31;;;15.57;49.01
71601;BME280;59446;52.192;4.628;2023-03-03T07:22:24;102739.91;;;15.59;49.34
71601;BME280;59446;52.192;4.628;2023-03-03T07:24:54;102754.84;;;15.57;49.24
71601;BME280;59446;52.192;4.628;2023-03-03T07:27:25;102754.00;;;15.55;49.69
71601;BME280;59446;52.192;4.628;2023-03-03T07:30:08;102757.53;;;15.54;49.80
71601;BME280;59446;52.192;4.628;2023-03-03T07:32:45;102755.75;;;15.54;49.35
71601;BME280;59446;52.192;4.628;2023-03-03T07:35:34;102758.41;;;15.53;49.79
71601;BME280;59446;52.192;4.628;2023-03-03T07:38:01;102765.41;;;15.54;49.52
71601;BME280;59446;52.192;4.628;2023-03-03T07:40:37;102761.72;;;15.62;49.61
71601;BME280;59446;52.192;4.628;2023-03-03T07:43:30;102772.88;;;15.77;49.74
71601;BME280;59446;52.192;4.628;2023-03-03T07:46:26;102769.34;;;15.79;48.62
71601;BME280;59446;52.192;4.628;2023-03-03T07:48:54;102770.09;;;15.84;48.46
71601;BME280;59446;52.192;4.628;2023-03-03T07:51:40;102766.59;;;15.84;47.80
71601;BME280;59446;52.192;4.628;2023-03-03T07:54:36;102769.25;;;15.82;48.44
71601;BME280;59446;52.192;4.628;2023-03-03T08:00:03;102772.69;;;15.86;47.72
71601;BME280;59446;52.192;4.628;2023-03-03T08:05:42;102783.81;;;16.00;47.63
71601;BME280;59446;52.192;4.628;2023-03-03T08:13:21;102798.44;;;16.13;47.72
71601;BME280;59446;52.192;4.628;2023-03-03T08:15:52;102794.72;;;16.23;47.36
71601;BME280;59446;52.192;4.628;2023-03-03T08:18:27;102797.13;;;16.35;47.27
71601;BME280;59446;52.192;4.628;2023-03-03T08:20:58;102805.69;;;16.44;47.53
71601;BME280;59446;52.192;4.628;2023-03-03T08:23:24;102796.72;;;16.52;47.63
71601;BME280;59446;52.192;4.628;2023-03-03T08:25:50;102798.03;;;16.73;46.91
71601;BME280;59446;52.192;4.628;2023-03-03T08:28:17;102800.56;;;16.78;47.05
71601;BME280;59446;52.192;4.628;2023-03-03T08:30:43;102804.97;;;16.79;47.23
71601;BME280;59446;52.192;4.628;2023-03-03T08:33:09;102802.00;;;16.92;47.45
71601;BME280;59446;52.192;4.628;2023-03-03T08:35:35;102801.78;;;17.02;47.10
71601;BME280;59446;52.192;4.628;2023-03-03T08:38:01;102803.25;;;17.13;46.78
71601;BME280;59446;52.192;4.628;2023-03-03T08:40:26;102802.25;;;17.17;46.92
71601;BME280;59446;52.192;4.628;2023-03-03T08:42:52;102803.16;;;17.16;47.03
71601;BME280;59446;52.192;4.628;2023-03-03T08:45:18;102808.22;;;17.25;47.00
71601;BME280;59446;52.192;4.628;2023-03-03T08:47:44;102812.34;;;17.36;47.09
71601;BME280;59446;52.192;4.628;2023-03-03T08:50:09;102809.34;;;17.51;46.86
71601;BME280;59446;52.192;4.628;2023-03-03T08:52:35;102811.00;;;17.55;46.79
71601;BME280;59446;52.192;4.628;2023-03-03T08:55:00;102808.44;;;17.52;46.84
71601;BME280;59446;52.192;4.628;2023-03-03T08:57:26;102804.06;;;17.51;47.07
71601;BME280;59446;52.192;4.628;2023-03-03T08:59:51;102812.47;;;17.65;46.72
71601;BME280;59446;52.192;4.628;2023-03-03T09:02:16;102813.06;;;17.76;46.68
71601;BME280;59446;52.192;4.628;2023-03-03T09:04:42;102812.78;;;17.87;46.43
71601;BME280;59446;52.192;4.628;2023-03-03T09:07:07;102810.22;;;17.84;46.79
71601;BME280;59446;52.192;4.628;2023-03-03T09:09:32;102819.94;;;17.82;46.81
71601;BME280;59446;52.192;4.628;2023-03-03T09:12:02;102819.16;;;17.78;47.14
71601;BME280;59446;52.192;4.628;2023-03-03T09:14:31;102817.63;;;17.71;47.12
71601;BME280;59446;52.192;4.628;2023-03-03T09:16:57;102815.88;;;17.70;47.15
71601;BME280;59446;52.192;4.628;2023-03-03T09:19:31;102819.47;;;17.66;47.29
71601;BME280;59446;52.192;4.628;2023-03-03T09:22:10;102815.19;;;17.62;47.58
71601;BME280;59446;52.192;4.628;2023-03-03T09:24:41;102814.56;;;17.52;48.13
71601;BME280;59446;52.192;4.628;2023-03-03T09:27:17;102808.50;;;17.49;47.66
71601;BME280;59446;52.192;4.628;2023-03-03T09:29:43;102812.00;;;17.49;48.01
71601;BME280;59446;52.192;4.628;2023-03-03T09:32:23;102818.13;;;17.50;47.97
71601;BME280;59446;52.192;4.628;2023-03-03T09:34:50;102812.06;;;17.48;48.13
71601;BME280;59446;52.192;4.628;2023-03-03T09:37:21;102806.81;;;17.46;48.16
71601;BME280;59446;52.192;4.628;2023-03-03T09:39:52;102810.38;;;17.44;48.37
71601;BME280;59446;52.192;4.628;2023-03-03T09:53:47;102820.69;;;17.17;49.24
71601;BME280;59446;52.192;4.628;2023-03-03T09:59:38;102813.91;;;17.43;48.41
71601;BME280;59446;52.192;4.628;2023-03-03T10:05:12;102820.16;;;17.74;47.82
71601;BME280;59446;52.192;4.628;2023-03-03T10:07:48;102812.22;;;17.76;47.99
71601;BME280;59446;52.192;4.628;2023-03-03T10:10:24;102818.34;;;17.76;48.11
71601;BME280;59446;52.192;4.628;2023-03-03T10:19:00;102821.72;;;17.81;47.96
71601;BME280;59446;52.192;4.628;2023-03-03T10:21:34;102820.81;;;17.82;48.17
71601;BME280;59446;52.192;4.628;2023-03-03T10:24:24;102821.59;;;17.86;48.06
71601;BME280;59446;52.192;4.628;2023-03-03T10:30:16;102819.69;;;17.91;47.97
71601;BME280;59446;52.192;4.628;2023-03-03T10:33:00;102811.91;;;17.86;47.93
71601;BME280;59446;52.192;4.628;2023-03-03T10:36:01;102819.78;;;17.88;47.97
71601;BME280;59446;52.192;4.628;2023-03-03T10:38:57;102820.53;;;17.93;47.85
71601;BME280;59446;52.192;4.628;2023-03-03T10:44:25;102816.16;;;17.92;47.80
71601;BME280;59446;52.192;4.628;2023-03-03T10:52:55;102817.09;;;17.89;47.98
71601;BME280;59446;52.192;4.628;2023-03-03T10:55:34;102818.13;;;17.84;48.14
71601;BME280;59446;52.192;4.628;2023-03-03T10:58:07;102814.69;;;17.82;48.04
71601;BME280;59446;52.192;4.628;2023-03-03T11:06:28;102826.13;;;17.81;48.14
71601;BME280;59446;52.192;4.628;2023-03-03T11:11:41;102813.91;;;17.78;48.11
71601;BME280;59446;52.192;4.628;2023-03-03T11:14:27;102815.63;;;17.79;48.21
71601;BME280;59446;52.192;4.628;2023-03-03T11:17:42;102814.41;;;17.91;48.26
71601;BME280;59446;52.192;4.628;2023-03-03T11:20:37;102814.41;;;17.91;48.17
71601;BME280;59446;52.192;4.628;2023-03-03T11:23:37;102816.22;;;17.89;48.20
71601;BME280;59446;52.192;4.628;2023-03-03T11:26:49;102812.81;;;17.85;48.21
71601;BME280;59446;52.192;4.628;2023-03-03T11:32:40;102813.59;;;17.89;48.44
71601;BME280;59446;52.192;4.628;2023-03-03T11:37:56;102804.59;;;17.98;48.28
71601;BME280;59446;52.192;4.628;2023-03-03T11:43:27;102806.53;;;17.89;48.78
71601;BME280;59446;52.192;4.628;2023-03-03T11:45:58;102805.63;;;17.91;48.56
71601;BME280;59446;52.192;4.628;2023-03-03T11:54:19;102807.28;;;17.96;50.09
71601;BME280;59446;52.192;4.628;2023-03-03T11:56:47;102800.22;;;17.97;48.92
71601;BME280;59446;52.192;4.628;2023-03-03T12:04:41;102792.13;;;18.03;48.82
71601;BME280;59446;52.192;4.628;2023-03-03T12:07:40;102788.50;;;18.07;48.79
71601;BME280;59446;52.192;4.628;2023-03-03T12:15:30;102790.34;;;18.03;49.15
71601;BME280;59446;52.192;4.628;2023-03-03T12:26:02;102781.41;;;18.09;48.97
71601;BME280;59446;52.192;4.628;2023-03-03T12:28:36;102771.75;;;18.08;48.96
71601;BME280;59446;52.192;4.628;2023-03-03T12:31:19;102770.91;;;18.07;48.82
71601;BME280;59446;52.192;4.628;2023-03-03T12:34:01;102771.72;;;18.09;48.93
71601;BME280;59446;52.192;4.628;2023-03-03T12:44:37;102773.50;;;18.09;48.68
71601;BME280;59446;52.192;4.628;2023-03-03T12:50:08;102769.94;;;18.10;48.53
71601;BME280;59446;52.192;4.628;2023-03-03T12:53:19;102770.84;;;18.09;48.77
71601;BME280;59446;52.192;4.628;2023-03-03T12:56:07;102769.09;;;18.09;48.39
71601;BME280;59446;52.192;4.628;2023-03-03T12:58:36;102763.19;;;18.01;48.53
71601;BME280;59446;52.192;4.628;2023-03-03T13:04:32;102762.22;;;18.04;49.19
71601;BME280;59446;52.192;4.628;2023-03-03T13:12:29;102763.94;;;18.05;48.78
71601;BME280;59446;52.192;4.628;2023-03-03T13:15:14;102764.84;;;18.04;48.79
71601;BME280;59446;52.192;4.628;2023-03-03T13:21:06;102761.25;;;18.06;48.61
71601;BME280;59446;52.192;4.628;2023-03-03T13:26:39;102752.50;;;18.06;48.45
71601;BME280;59446;52.192;4.628;2023-03-03T13:31:45;102757.66;;;18.09;48.53
71601;BME280;59446;52.192;4.628;2023-03-03T13:34:32;102755.94;;;18.08;48.40
71601;BME280;59446;52.192;4.628;2023-03-03T13:37:29;102757.66;;;18.09;48.44
71601;BME280;59446;52.192;4.628;2023-03-03T13:42:39;102752.53;;;18.04;48.69
71601;BME280;59446;52.192;4.628;2023-03-03T13:45:27;102750.75;;;18.05;48.48
71601;BME280;59446;52.192;4.628;2023-03-03T13:48:01;102756.00;;;18.06;48.45
71601;BME280;59446;52.192;4.628;2023-03-03T13:50:45;102752.50;;;18.06;48.41
71601;BME280;59446;52.192;4.628;2023-03-03T13:56:18;102753.41;;;18.05;48.46
71601;BME280;59446;52.192;4.628;2023-03-03T14:07:40;102748.22;;;18.02;48.42
71601;BME280;59446;52.192;4.628;2023-03-03T14:10:12;102749.94;;;18.03;48.31
71601;BME280;59446;52.192;4.628;2023-03-03T14:13:07;102747.31;;;18.03;48.40
71601;BME280;59446;52.192;4.628;2023-03-03T14:15:49;102748.22;;;18.02;48.32
71601;BME280;59446;52.192;4.628;2023-03-03T14:18:28;102743.91;;;17.99;48.47
71601;BME280;59446;52.192;4.628;2023-03-03T14:21:04;102747.38;;;18.01;48.41
71601;BME280;59446;52.192;4.628;2023-03-03T14:24:14;102746.59;;;17.98;48.50
71601;BME280;59446;52.192;4.628;2023-03-03T14:26:52;102749.38;;;17.93;49.06
71601;BME280;59446;52.192;4.628;2023-03-03T14:29:31;102746.63;;;17.96;48.52
71601;BME280;59446;52.192;4.628;2023-03-03T14:31:59;102745.72;;;17.97;48.44
71601;BME280;59446;52.192;4.628;2023-03-03T14:34:39;102749.22;;;17.98;48.47
71601;BME280;59446;52.192;4.628;2023-03-03T14:37:43;102740.50;;;17.96;48.53
71601;BME280;59446;52.192;4.628;2023-03-03T14:40:21;102750.19;;;17.95;48.29
71601;BME280;59446;52.192;4.628;2023-03-03T14:42:55;102737.06;;;17.94;48.69
71601;BME280;59446;52.192;4.628;2023-03-03T14:45:41;102739.72;;;17.92;48.72
71601;BME280;59446;52.192;4.628;2023-03-03T14:48:20;102735.28;;;17.94;48.39
71601;BME280;59446;52.192;4.628;2023-03-03T14:51:14;102738.78;;;17.95;48.68
71601;BME280;59446;52.192;4.628;2023-03-03T14:53:45;102738.72;;;17.96;48.62
71601;BME280;59446;52.192;4.628;2023-03-03T14:56:28;102739.63;;;17.95;48.39
71601;BME280;59446;52.192;4.628;2023-03-03T15:01:38;102749.41;;;17.92;48.48
71601;BME280;59446;52.192;4.628;2023-03-03T15:06:49;102730.81;;;17.96;48.63
71601;BME280;59446;52.192;4.628;2023-03-03T15:12:22;102729.19;;;17.92;48.42
71601;BME280;59446;52.192;4.628;2023-03-03T15:15:01;102725.66;;;17.93;48.46
71601;BME280;59446;52.192;4.628;2023-03-03T15:17:36;102724.88;;;17.88;48.75
71601;BME280;59446;52.192;4.628;2023-03-03T15:26:08;102713.44;;;17.89;48.55
71601;BME280;59446;52.192;4.628;2023-03-03T15:31:41;102723.13;;;17.88;48.30
71601;BME280;59446;52.192;4.628;2023-03-03T15:34:42;102716.97;;;17.88;48.37
71601;BME280;59446;52.192;4.628;2023-03-03T15:37:34;102716.13;;;17.87;48.33
71601;BME280;59446;52.192;4.628;2023-03-03T15:40:27;102721.44;;;17.86;48.49
71601;BME280;59446;52.192;4.628;2023-03-03T15:43:05;102716.88;;;17.91;48.51
71601;BME280;59446;52.192;4.628;2023-03-03T15:46:02;102713.66;;;18.11;48.97
71601;BME280;59446;52.192;4.628;2023-03-03T15:51:30;102712.00;;;18.36;48.03
71601;BME280;59446;52.192;4.628;2023-03-03T15:54:20;102712.97;;;18.34;47.89
71601;BME280;59446;52.192;4.628;2023-03-03T15:56:59;102704.88;;;18.41;47.74
71601;BME280;59446;52.192;4.628;2023-03-03T16:05:29;102706.50;;;18.45;47.92
71601;BME280;59446;52.192;4.628;2023-03-03T16:08:12;102711.78;;;18.45;47.69
71601;BME280;59446;52.192;4.628;2023-03-03T16:11:43;102710.75;;;18.49;47.67